sensor_id;sensor_type;location;lat;lon;timestamp;temperature;humidity
18126;DHT22;53956;52.442;13.284;2023-05-10T00:00:54;16.60;68.40
18126;DHT22;53956;52.442;13.284;2023-05-10T00:03:20;16.70;68.40
18126;DHT22;53956;52.442;13.284;2023-05-10T00:05:47;16.80;67.80
18126;DHT22;53956;52.442;13.284;2023-05-10T00:08:14;16.30;68.70
18126;DHT22;53956;52.442;13.284;2023-05-10T00:10:40;16.70;68.80
18126;DHT22;53956;52.442;13.284;2023-05-10T00:13:08;16.80;68.30
18126;DHT22;53956;52.442;13.284;2023-05-10T00:15:35;16.70;68.10
18126;DHT22;53956;52.442;13.284;2023-05-10T00:18:02;16.70;68.40
18126;DHT22;53956;52.442;13.284;2023-05-10T00:20:29;16.40;68.80
18126;DHT22;53956;52.442;13.284;2023-05-10T00:22:55;16.60;68.60
18126;DHT22;53956;52.442;13.284;2023-05-10T00:25:22;16.70;68.70
18126;DHT22;53956;52.442;13.284;2023-05-10T00:27:48;16.80;68.30
18126;DHT22;53956;52.442;13.284;2023-05-10T00:30:17;16.40;68.20
18126;DHT22;53956;52.442;13.284;2023-05-10T00:32:44;16.50;69.30
18126;DHT22;53956;52.442;13.284;2023-05-10T00:35:10;16.40;69.20
18126;DHT22;53956;52.442;13.284;2023-05-10T00:37:37;16.40;69.00
18126;DHT22;53956;52.442;13.284;2023-05-10T00:40:05;16.50;69.60
18126;DHT22;53956;52.442;13.284;2023-05-10T00:42:32;16.40;69.00
18126;DHT22;53956;52.442;13.284;2023-05-10T00:44:59;16.20;69.70
18126;DHT22;53956;52.442;13.284;2023-05-10T00:47:27;16.20;70.30
18126;DHT22;53956;52.442;13.284;2023-05-10T00:49:55;16.20;70.10
18126;DHT22;53956;52.442;13.284;2023-05-10T00:52:22;16.30;70.20
18126;DHT22;53956;52.442;13.284;2023-05-10T00:54:50;16.30;69.70
18126;DHT22;53956;52.442;13.284;2023-05-10T00:57:18;16.50;69.70
18126;DHT22;53956;52.442;13.284;2023-05-10T00:59:45;16.50;69.50
18126;DHT22;53956;52.442;13.284;2023-05-10T01:02:12;16.50;68.70
18126;DHT22;53956;52.442;13.284;2023-05-10T01:04:41;16.30;69.30
18126;DHT22;53956;52.442;13.284;2023-05-10T01:07:07;16.10;69.50
18126;DHT22;53956;52.442;13.284;2023-05-10T01:09:34;16.20;69.40
18126;DHT22;53956;52.442;13.284;2023-05-10T01:12:01;15.80;70.80
18126;DHT22;53956;52.442;13.284;2023-05-10T01:14:29;16.10;70.50
18126;DHT22;53956;52.442;13.284;2023-05-10T01:16:56;16.20;69.30
18126;DHT22;53956;52.442;13.284;2023-05-10T01:19:25;16.20;69.40
18126;DHT22;53956;52.442;13.284;2023-05-10T01:22:02;15.90;69.80
18126;DHT22;53956;52.442;13.284;2023-05-10T01:25:01;15.80;70.20
18126;DHT22;53956;52.442;13.284;2023-05-10T01:27:51;15.70;70.80
18126;DHT22;53956;52.442;13.284;2023-05-10T01:30:47;16.00;71.40
18126;DHT22;53956;52.442;13.284;2023-05-10T01:33:23;16.10;70.40
18126;DHT22;53956;52.442;13.284;2023-05-10T01:35:59;16.10;70.40
18126;DHT22;53956;52.442;13.284;2023-05-10T01:38:32;16.20;69.70
18126;DHT22;53956;52.442;13.284;2023-05-10T01:41:12;15.90;69.70
18126;DHT22;53956;52.442;13.284;2023-05-10T01:43:45;16.10;69.90
18126;DHT22;53956;52.442;13.284;2023-05-10T01:46:17;15.90;70.40
18126;DHT22;53956;52.442;13.284;2023-05-10T01:48:52;16.10;70.30
18126;DHT22;53956;52.442;13.284;2023-05-10T01:51:23;16.20;70.10
18126;DHT22;53956;52.442;13.284;2023-05-10T01:53:54;15.90;70.20
18126;DHT22;53956;52.442;13.284;2023-05-10T01:56:26;16.10;70.50
18126;DHT22;53956;52.442;13.284;2023-05-10T01:58:55;15.50;71.40
18126;DHT22;53956;52.442;13.284;2023-05-10T02:01:23;15.70;71.80
18126;DHT22;53956;52.442;13.284;2023-05-10T02:03:53;16.00;70.80
18126;DHT22;53956;52.442;13.284;2023-05-10T02:06:24;16.00;71.00
18126;DHT22;53956;52.442;13.284;2023-05-10T02:08:52;16.00;70.50
18126;DHT22;53956;52.442;13.284;2023-05-10T02:11:19;15.90;70.90
18126;DHT22;53956;52.442;13.284;2023-05-10T02:13:48;15.60;71.60
18126;DHT22;53956;52.442;13.284;2023-05-10T02:16:16;15.40;72.90
18126;DHT22;53956;52.442;13.284;2023-05-10T02:18:45;15.30;75.20
18126;DHT22;53956;52.442;13.284;2023-05-10T02:21:15;15.30;75.00
18126;DHT22;53956;52.442;13.284;2023-05-10T02:23:44;15.40;72.50
18126;DHT22;53956;52.442;13.284;2023-05-10T02:26:12;15.70;72.80
18126;DHT22;53956;52.442;13.284;2023-05-10T02:28:40;15.30;74.80
18126;DHT22;53956;52.442;13.284;2023-05-10T02:31:08;15.30;75.60
18126;DHT22;53956;52.442;13.284;2023-05-10T02:33:38;15.70;73.60
18126;DHT22;53956;52.442;13.284;2023-05-10T02:36:07;15.70;72.30
18126;DHT22;53956;52.442;13.284;2023-05-10T02:38:37;15.70;73.10
18126;DHT22;53956;52.442;13.284;2023-05-10T02:41:05;15.60;72.40
18126;DHT22;53956;52.442;13.284;2023-05-10T02:43:35;15.10;75.90
18126;DHT22;53956;52.442;13.284;2023-05-10T02:46:02;14.80;77.10
18126;DHT22;53956;52.442;13.284;2023-05-10T02:48:29;15.10;77.20
18126;DHT22;53956;52.442;13.284;2023-05-10T02:51:03;15.10;76.60
18126;DHT22;53956;52.442;13.284;2023-05-10T02:53:32;15.40;75.50
18126;DHT22;53956;52.442;13.284;2023-05-10T02:56:05;15.50;74.00
18126;DHT22;53956;52.442;13.284;2023-05-10T02:58:34;15.50;74.60
18126;DHT22;53956;52.442;13.284;2023-05-10T03:01:01;15.20;77.30
18126;DHT22;53956;52.442;13.284;2023-05-10T03:03:27;15.20;76.90
18126;DHT22;53956;52.442;13.284;2023-05-10T03:05:54;15.10;77.40
18126;DHT22;53956;52.442;13.284;2023-05-10T03:08:22;15.10;77.60
18126;DHT22;53956;52.442;13.284;2023-05-10T03:10:59;15.40;77.30
18126;DHT22;53956;52.442;13.284;2023-05-10T03:13:35;15.40;76.10
18126;DHT22;53956;52.442;13.284;2023-05-10T03:16:08;15.40;76.50
18126;DHT22;53956;52.442;13.284;2023-05-10T03:18:42;15.40;76.10
18126;DHT22;53956;52.442;13.284;2023-05-10T03:21:11;15.20;75.80
18126;DHT22;53956;52.442;13.284;2023-05-10T03:23:43;15.10;77.80
18126;DHT22;53956;52.442;13.284;2023-05-10T03:26:10;15.40;77.10
18126;DHT22;53956;52.442;13.284;2023-05-10T03:28:41;15.20;76.30
18126;DHT22;53956;52.442;13.284;2023-05-10T03:31:09;15.20;76.60
18126;DHT22;53956;52.442;13.284;2023-05-10T03:33:45;15.20;77.40
18126;DHT22;53956;52.442;13.284;2023-05-10T03:36:12;15.50;75.40
18126;DHT22;53956;52.442;13.284;2023-05-10T03:38:39;15.20;77.50
18126;DHT22;53956;52.442;13.284;2023-05-10T03:41:06;15.30;77.00
18126;DHT22;53956;52.442;13.284;2023-05-10T03:43:32;15.30;76.90
18126;DHT22;53956;52.442;13.284;2023-05-10T03:46:01;15.30;76.90
18126;DHT22;53956;52.442;13.284;2023-05-10T03:48:28;15.30;74.80
18126;DHT22;53956;52.442;13.284;2023-05-10T03:50:54;14.90;77.60
18126;DHT22;53956;52.442;13.284;2023-05-10T03:53:21;15.00;77.40
18126;DHT22;53956;52.442;13.284;2023-05-10T03:55:48;15.10;77.10
18126;DHT22;53956;52.442;13.284;2023-05-10T03:58:14;15.10;76.20
18126;DHT22;53956;52.442;13.284;2023-05-10T04:00:42;14.60;79.20
18126;DHT22;53956;52.442;13.284;2023-05-10T04:03:13;15.00;78.00
18126;DHT22;53956;52.442;13.284;2023-05-10T04:05:40;14.90;76.80
18126;DHT22;53956;52.442;13.284;2023-05-10T04:08:06;14.70;78.40
18126;DHT22;53956;52.442;13.284;2023-05-10T04:10:33;14.50;78.50
18126;DHT22;53956;52.442;13.284;2023-05-10T04:13:00;14.70;78.20
18126;DHT22;53956;52.442;13.284;2023-05-10T04:15:27;14.70;78.20
18126;DHT22;53956;52.442;13.284;2023-05-10T04:17:54;14.60;78.40
18126;DHT22;53956;52.442;13.284;2023-05-10T04:20:22;14.70;78.10
18126;DHT22;53956;52.442;13.284;2023-05-10T04:22:48;14.90;78.30
18126;DHT22;53956;52.442;13.284;2023-05-10T04:25:15;15.10;77.50
18126;DHT22;53956;52.442;13.284;2023-05-10T04:27:42;15.20;77.40
18126;DHT22;53956;52.442;13.284;2023-05-10T04:30:09;15.20;77.60
18126;DHT22;53956;52.442;13.284;2023-05-10T04:32:36;15.50;74.80
18126;DHT22;53956;52.442;13.284;2023-05-10T04:35:03;15.90;72.80
18126;DHT22;53956;52.442;13.284;2023-05-10T04:37:31;15.30;75.30
18126;DHT22;53956;52.442;13.284;2023-05-10T04:39:58;15.30;76.00
18126;DHT22;53956;52.442;13.284;2023-05-10T04:42:26;15.30;75.70
18126;DHT22;53956;52.442;13.284;2023-05-10T04:44:52;15.50;74.30
18126;DHT22;53956;52.442;13.284;2023-05-10T04:47:19;15.40;74.50
18126;DHT22;53956;52.442;13.284;2023-05-10T04:49:46;15.60;73.90
18126;DHT22;53956;52.442;13.284;2023-05-10T04:52:12;16.10;71.20
18126;DHT22;53956;52.442;13.284;2023-05-10T04:54:41;16.40;70.20
18126;DHT22;53956;52.442;13.284;2023-05-10T04:57:08;16.30;70.10
18126;DHT22;53956;52.442;13.284;2023-05-10T04:59:35;15.90;71.70
18126;DHT22;53956;52.442;13.284;2023-05-10T05:02:02;16.40;70.50
18126;DHT22;53956;52.442;13.284;2023-05-10T05:04:29;16.30;70.80
18126;DHT22;53956;52.442;13.284;2023-05-10T05:06:56;16.70;70.60
18126;DHT22;53956;52.442;13.284;2023-05-10T05:09:23;16.70;70.10
18126;DHT22;53956;52.442;13.284;2023-05-10T05:11:51;16.60;70.10
18126;DHT22;53956;52.442;13.284;2023-05-10T05:14:17;17.30;69.00
18126;DHT22;53956;52.442;13.284;2023-05-10T05:16:46;17.70;67.80
18126;DHT22;53956;52.442;13.284;2023-05-10T05:19:13;17.90;67.70
18126;DHT22;53956;52.442;13.284;2023-05-10T05:21:39;18.40;65.50
18126;DHT22;53956;52.442;13.284;2023-05-10T05:24:06;19.20;62.50
18126;DHT22;53956;52.442;13.284;2023-05-10T05:26:33;20.20;60.90
18126;DHT22;53956;52.442;13.284;2023-05-10T05:29:01;21.30;56.40
18126;DHT22;53956;52.442;13.284;2023-05-10T05:31:28;21.70;56.40
18126;DHT22;53956;52.442;13.284;2023-05-10T05:33:55;22.00;55.00
18126;DHT22;53956;52.442;13.284;2023-05-10T05:36:21;22.80;53.40
18126;DHT22;53956;52.442;13.284;2023-05-10T05:38:48;22.60;52.50
18126;DHT22;53956;52.442;13.284;2023-05-10T05:41:15;22.60;52.60
18126;DHT22;53956;52.442;13.284;2023-05-10T05:43:41;22.60;52.80
18126;DHT22;53956;52.442;13.284;2023-05-10T05:46:09;23.20;50.90
18126;DHT22;53956;52.442;13.284;2023-05-10T05:48:36;23.20;51.60
18126;DHT22;53956;52.442;13.284;2023-05-10T05:51:03;24.20;49.40
18126;DHT22;53956;52.442;13.284;2023-05-10T05:53:29;23.90;48.90
18126;DHT22;53956;52.442;13.284;2023-05-10T05:55:58;24.20;48.80
18126;DHT22;53956;52.442;13.284;2023-05-10T05:58:25;24.40;47.80
18126;DHT22;53956;52.442;13.284;2023-05-10T06:00:52;23.30;50.70
18126;DHT22;53956;52.442;13.284;2023-05-10T06:03:20;24.00;48.90
18126;DHT22;53956;52.442;13.284;2023-05-10T06:05:47;24.90;47.50
18126;DHT22;53956;52.442;13.284;2023-05-10T06:08:14;24.30;47.90
18126;DHT22;53956;52.442;13.284;2023-05-10T06:10:40;23.40;50.10
18126;DHT22;53956;52.442;13.284;2023-05-10T06:13:07;24.80;48.30
18126;DHT22;53956;52.442;13.284;2023-05-10T06:15:34;24.40;47.60
18126;DHT22;53956;52.442;13.284;2023-05-10T06:18:01;24.80;47.80
18126;DHT22;53956;52.442;13.284;2023-05-10T06:20:29;26.10;45.70
18126;DHT22;53956;52.442;13.284;2023-05-10T06:22:56;25.70;46.30
18126;DHT22;53956;52.442;13.284;2023-05-10T06:25:23;25.90;45.20
18126;DHT22;53956;52.442;13.284;2023-05-10T06:27:50;25.60;46.00
18126;DHT22;53956;52.442;13.284;2023-05-10T06:30:20;24.70;47.30
18126;DHT22;53956;52.442;13.284;2023-05-10T06:32:48;23.80;48.30
18126;DHT22;53956;52.442;13.284;2023-05-10T06:35:15;24.60;48.10
18126;DHT22;53956;52.442;13.284;2023-05-10T06:37:43;24.60;48.20
18126;DHT22;53956;52.442;13.284;2023-05-10T06:40:10;25.40;45.80
18126;DHT22;53956;52.442;13.284;2023-05-10T06:42:37;25.10;47.30
18126;DHT22;53956;52.442;13.284;2023-05-10T06:45:04;26.00;45.50
18126;DHT22;53956;52.442;13.284;2023-05-10T06:47:31;24.70;46.40
18126;DHT22;53956;52.442;13.284;2023-05-10T06:49:58;23.80;48.90
18126;DHT22;53956;52.442;13.284;2023-05-10T06:52:25;22.10;51.60
18126;DHT22;53956;52.442;13.284;2023-05-10T06:54:53;22.10;52.60
18126;DHT22;53956;52.442;13.284;2023-05-10T06:57:19;22.20;51.80
18126;DHT22;53956;52.442;13.284;2023-05-10T06:59:46;21.40;54.40
18126;DHT22;53956;52.442;13.284;2023-05-10T07:02:13;22.00;53.10
18126;DHT22;53956;52.442;13.284;2023-05-10T07:04:41;21.60;54.10
18126;DHT22;53956;52.442;13.284;2023-05-10T07:07:07;22.00;53.70
18126;DHT22;53956;52.442;13.284;2023-05-10T07:09:34;22.10;52.90
18126;DHT22;53956;52.442;13.284;2023-05-10T07:12:03;21.60;54.80
18126;DHT22;53956;52.442;13.284;2023-05-10T07:14:30;21.90;53.70
18126;DHT22;53956;52.442;13.284;2023-05-10T07:16:56;21.90;53.70
18126;DHT22;53956;52.442;13.284;2023-05-10T07:19:23;21.90;54.50
18126;DHT22;53956;52.442;13.284;2023-05-10T07:21:50;21.80;54.70
18126;DHT22;53956;52.442;13.284;2023-05-10T07:24:17;21.70;53.90
18126;DHT22;53956;52.442;13.284;2023-05-10T07:26:43;20.70;57.80
18126;DHT22;53956;52.442;13.284;2023-05-10T07:29:12;20.60;58.20
18126;DHT22;53956;52.442;13.284;2023-05-10T07:31:38;20.40;58.20
18126;DHT22;53956;52.442;13.284;2023-05-10T07:34:07;20.10;58.80
18126;DHT22;53956;52.442;13.284;2023-05-10T07:36:33;20.60;58.10
18126;DHT22;53956;52.442;13.284;2023-05-10T07:39:00;20.20;59.10
18126;DHT22;53956;52.442;13.284;2023-05-10T07:41:28;20.20;58.10
18126;DHT22;53956;52.442;13.284;2023-05-10T07:43:54;20.20;59.00
18126;DHT22;53956;52.442;13.284;2023-05-10T07:46:22;20.30;59.70
18126;DHT22;53956;52.442;13.284;2023-05-10T07:48:49;20.30;59.10
18126;DHT22;53956;52.442;13.284;2023-05-10T07:51:16;20.20;59.20
18126;DHT22;53956;52.442;13.284;2023-05-10T07:53:42;20.10;59.70
18126;DHT22;53956;52.442;13.284;2023-05-10T07:56:23;20.50;59.00
18126;DHT22;53956;52.442;13.284;2023-05-10T07:58:51;19.80;61.00
18126;DHT22;53956;52.442;13.284;2023-05-10T08:01:18;20.10;59.90
18126;DHT22;53956;52.442;13.284;2023-05-10T08:03:46;19.90;60.50
18126;DHT22;53956;52.442;13.284;2023-05-10T08:06:13;20.40;59.60
18126;DHT22;53956;52.442;13.284;2023-05-10T08:08:41;20.60;59.50
18126;DHT22;53956;52.442;13.284;2023-05-10T08:11:08;20.40;59.90
18126;DHT22;53956;52.442;13.284;2023-05-10T08:13:35;20.10;60.10
18126;DHT22;53956;52.442;13.284;2023-05-10T08:16:01;20.80;60.40
18126;DHT22;53956;52.442;13.284;2023-05-10T08:18:28;21.00;57.90
18126;DHT22;53956;52.442;13.284;2023-05-10T08:20:56;21.30;57.70
18126;DHT22;53956;52.442;13.284;2023-05-10T08:23:23;21.40;58.20
18126;DHT22;53956;52.442;13.284;2023-05-10T08:25:49;21.80;57.30
18126;DHT22;53956;52.442;13.284;2023-05-10T08:28:16;21.50;56.70
18126;DHT22;53956;52.442;13.284;2023-05-10T08:30:43;21.00;57.70
18126;DHT22;53956;52.442;13.284;2023-05-10T08:33:09;21.40;57.60
18126;DHT22;53956;52.442;13.284;2023-05-10T08:35:36;21.70;57.40
18126;DHT22;53956;52.442;13.284;2023-05-10T08:38:04;22.20;56.60
18126;DHT22;53956;52.442;13.284;2023-05-10T08:40:31;21.90;56.30
18126;DHT22;53956;52.442;13.284;2023-05-10T08:43:03;21.70;56.60
18126;DHT22;53956;52.442;13.284;2023-05-10T08:45:33;21.40;58.10
18126;DHT22;53956;52.442;13.284;2023-05-10T08:48:01;21.40;57.40
18126;DHT22;53956;52.442;13.284;2023-05-10T08:50:29;21.20;57.20
18126;DHT22;53956;52.442;13.284;2023-05-10T08:53:00;21.20;58.70
18126;DHT22;53956;52.442;13.284;2023-05-10T08:55:28;21.00;58.20
18126;DHT22;53956;52.442;13.284;2023-05-10T08:57:55;21.00;58.40
18126;DHT22;53956;52.442;13.284;2023-05-10T09:00:22;21.50;57.90
18126;DHT22;53956;52.442;13.284;2023-05-10T09:02:50;21.10;57.70
18126;DHT22;53956;52.442;13.284;2023-05-10T09:05:16;21.30;58.70
18126;DHT22;53956;52.442;13.284;2023-05-10T09:07:43;21.70;57.30
18126;DHT22;53956;52.442;13.284;2023-05-10T09:10:11;21.70;57.30
18126;DHT22;53956;52.442;13.284;2023-05-10T09:12:39;21.30;58.00
18126;DHT22;53956;52.442;13.284;2023-05-10T09:15:07;21.60;57.30
18126;DHT22;53956;52.442;13.284;2023-05-10T09:17:36;21.80;58.10
18126;DHT22;53956;52.442;13.284;2023-05-10T09:20:04;21.90;56.20
18126;DHT22;53956;52.442;13.284;2023-05-10T09:22:31;21.90;58.10
18126;DHT22;53956;52.442;13.284;2023-05-10T09:25:06;22.20;57.20
18126;DHT22;53956;52.442;13.284;2023-05-10T09:27:33;22.20;56.80
18126;DHT22;53956;52.442;13.284;2023-05-10T09:30:01;21.70;57.00
18126;DHT22;53956;52.442;13.284;2023-05-10T09:32:36;21.90;56.60
18126;DHT22;53956;52.442;13.284;2023-05-10T09:35:07;21.60;57.70
18126;DHT22;53956;52.442;13.284;2023-05-10T09:37:34;21.90;57.70
18126;DHT22;53956;52.442;13.284;2023-05-10T09:40:04;22.10;58.10
18126;DHT22;53956;52.442;13.284;2023-05-10T09:42:31;22.00;57.50
18126;DHT22;53956;52.442;13.284;2023-05-10T09:45:02;22.10;57.10
18126;DHT22;53956;52.442;13.284;2023-05-10T09:47:29;21.90;58.50
18126;DHT22;53956;52.442;13.284;2023-05-10T09:49:57;21.90;56.80
18126;DHT22;53956;52.442;13.284;2023-05-10T09:52:28;21.60;57.70
18126;DHT22;53956;52.442;13.284;2023-05-10T09:54:55;21.80;57.10
18126;DHT22;53956;52.442;13.284;2023-05-10T09:57:23;21.80;58.00
18126;DHT22;53956;52.442;13.284;2023-05-10T09:59:50;21.90;57.30
18126;DHT22;53956;52.442;13.284;2023-05-10T10:02:21;22.00;57.80
18126;DHT22;53956;52.442;13.284;2023-05-10T10:04:54;22.20;58.00
18126;DHT22;53956;52.442;13.284;2023-05-10T10:07:23;22.40;58.20
18126;DHT22;53956;52.442;13.284;2023-05-10T10:09:51;22.50;56.80
18126;DHT22;53956;52.442;13.284;2023-05-10T10:12:18;22.70;56.90
18126;DHT22;53956;52.442;13.284;2023-05-10T10:14:46;22.30;56.50
18126;DHT22;53956;52.442;13.284;2023-05-10T10:17:13;22.10;57.60
18126;DHT22;53956;52.442;13.284;2023-05-10T10:19:41;22.00;57.70
18126;DHT22;53956;52.442;13.284;2023-05-10T10:22:08;21.80;57.80
18126;DHT22;53956;52.442;13.284;2023-05-10T10:24:37;22.00;57.90
18126;DHT22;53956;52.442;13.284;2023-05-10T10:27:12;22.30;57.40
18126;DHT22;53956;52.442;13.284;2023-05-10T10:29:47;22.10;57.10
18126;DHT22;53956;52.442;13.284;2023-05-10T10:32:22;22.10;58.00
18126;DHT22;53956;52.442;13.284;2023-05-10T10:34:53;22.40;57.90
18126;DHT22;53956;52.442;13.284;2023-05-10T10:37:21;22.40;57.70
18126;DHT22;53956;52.442;13.284;2023-05-10T10:39:48;22.60;57.40
18126;DHT22;53956;52.442;13.284;2023-05-10T10:42:44;22.80;59.00
18126;DHT22;53956;52.442;13.284;2023-05-10T10:45:12;22.80;57.00
18126;DHT22;53956;52.442;13.284;2023-05-10T10:47:39;22.90;58.20
18126;DHT22;53956;52.442;13.284;2023-05-10T10:50:07;22.70;56.70
18126;DHT22;53956;52.442;13.284;2023-05-10T10:52:35;22.70;57.30
18126;DHT22;53956;52.442;13.284;2023-05-10T10:55:04;22.60;57.10
18126;DHT22;53956;52.442;13.284;2023-05-10T10:57:33;22.50;58.10
18126;DHT22;53956;52.442;13.284;2023-05-10T11:00:22;22.70;57.80
18126;DHT22;53956;52.442;13.284;2023-05-10T11:02:51;22.40;56.20
18126;DHT22;53956;52.442;13.284;2023-05-10T11:05:25;22.50;57.50
18126;DHT22;53956;52.442;13.284;2023-05-10T11:07:53;22.60;57.10
18126;DHT22;53956;52.442;13.284;2023-05-10T11:10:20;22.70;56.50
18126;DHT22;53956;52.442;13.284;2023-05-10T11:12:58;22.40;55.10
18126;DHT22;53956;52.442;13.284;2023-05-10T11:15:31;22.60;55.10
18126;DHT22;53956;52.442;13.284;2023-05-10T11:17:58;22.40;56.70
18126;DHT22;53956;52.442;13.284;2023-05-10T11:20:29;22.50;56.90
18126;DHT22;53956;52.442;13.284;2023-05-10T11:23:12;22.60;55.90
18126;DHT22;53956;52.442;13.284;2023-05-10T11:25:42;22.70;55.90
18126;DHT22;53956;52.442;13.284;2023-05-10T11:28:10;22.60;56.60
18126;DHT22;53956;52.442;13.284;2023-05-10T11:30:38;22.70;55.20
18126;DHT22;53956;52.442;13.284;2023-05-10T11:33:05;22.50;56.40
18126;DHT22;53956;52.442;13.284;2023-05-10T11:35:37;22.80;58.20
18126;DHT22;53956;52.442;13.284;2023-05-10T11:38:05;23.10;57.90
18126;DHT22;53956;52.442;13.284;2023-05-10T11:40:32;23.00;56.70
18126;DHT22;53956;52.442;13.284;2023-05-10T11:42:59;23.00;55.80
18126;DHT22;53956;52.442;13.284;2023-05-10T11:45:26;23.00;53.70
18126;DHT22;53956;52.442;13.284;2023-05-10T11:47:53;22.90;54.40
18126;DHT22;53956;52.442;13.284;2023-05-10T11:50:20;22.80;54.10
18126;DHT22;53956;52.442;13.284;2023-05-10T11:52:51;22.80;55.10
18126;DHT22;53956;52.442;13.284;2023-05-10T11:55:18;22.90;55.20
18126;DHT22;53956;52.442;13.284;2023-05-10T11:57:45;23.00;54.70
18126;DHT22;53956;52.442;13.284;2023-05-10T12:00:12;22.90;54.00
18126;DHT22;53956;52.442;13.284;2023-05-10T12:02:41;22.80;53.70
18126;DHT22;53956;52.442;13.284;2023-05-10T12:05:09;23.10;56.00
18126;DHT22;53956;52.442;13.284;2023-05-10T12:07:36;23.10;54.20
18126;DHT22;53956;52.442;13.284;2023-05-10T12:10:05;23.30;55.70
18126;DHT22;53956;52.442;13.284;2023-05-10T12:12:37;23.20;53.20
18126;DHT22;53956;52.442;13.284;2023-05-10T12:15:05;23.30;56.30
18126;DHT22;53956;52.442;13.284;2023-05-10T12:17:32;23.30;55.00
18126;DHT22;53956;52.442;13.284;2023-05-10T12:20:13;23.30;53.90
18126;DHT22;53956;52.442;13.284;2023-05-10T12:22:40;23.50;53.70
18126;DHT22;53956;52.442;13.284;2023-05-10T12:25:09;23.30;52.10
18126;DHT22;53956;52.442;13.284;2023-05-10T12:27:36;23.40;54.50
18126;DHT22;53956;52.442;13.284;2023-05-10T12:30:04;23.50;53.10
18126;DHT22;53956;52.442;13.284;2023-05-10T12:32:40;23.30;52.40
18126;DHT22;53956;52.442;13.284;2023-05-10T12:35:08;23.30;52.60
18126;DHT22;53956;52.442;13.284;2023-05-10T12:37:35;23.30;51.10
18126;DHT22;53956;52.442;13.284;2023-05-10T12:40:08;23.20;52.40
18126;DHT22;53956;52.442;13.284;2023-05-10T12:42:35;23.20;53.00
18126;DHT22;53956;52.442;13.284;2023-05-10T12:45:02;23.30;52.10
18126;DHT22;53956;52.442;13.284;2023-05-10T12:47:29;23.30;52.20
18126;DHT22;53956;52.442;13.284;2023-05-10T12:49:55;23.40;52.10
18126;DHT22;53956;52.442;13.284;2023-05-10T12:52:22;23.40;52.50
18126;DHT22;53956;52.442;13.284;2023-05-10T12:54:49;23.50;53.50
18126;DHT22;53956;52.442;13.284;2023-05-10T12:57:17;23.50;52.20
18126;DHT22;53956;52.442;13.284;2023-05-10T12:59:43;23.60;52.50
18126;DHT22;53956;52.442;13.284;2023-05-10T13:02:10;23.60;51.50
18126;DHT22;53956;52.442;13.284;2023-05-10T13:04:37;23.70;52.40
18126;DHT22;53956;52.442;13.284;2023-05-10T13:07:05;23.50;52.20
18126;DHT22;53956;52.442;13.284;2023-05-10T13:09:32;23.40;52.90
18126;DHT22;53956;52.442;13.284;2023-05-10T13:11:58;23.40;53.20
18126;DHT22;53956;52.442;13.284;2023-05-10T13:14:27;23.20;52.40
18126;DHT22;53956;52.442;13.284;2023-05-10T13:16:53;23.30;52.60
18126;DHT22;53956;52.442;13.284;2023-05-10T13:19:20;23.30;55.20
18126;DHT22;53956;52.442;13.284;2023-05-10T13:21:47;23.50;52.40
18126;DHT22;53956;52.442;13.284;2023-05-10T13:24:13;23.40;51.50
18126;DHT22;53956;52.442;13.284;2023-05-10T13:26:40;23.40;52.00
18126;DHT22;53956;52.442;13.284;2023-05-10T13:29:07;23.40;51.80
18126;DHT22;53956;52.442;13.284;2023-05-10T13:31:35;23.60;51.70
18126;DHT22;53956;52.442;13.284;2023-05-10T13:34:02;23.50;51.30
18126;DHT22;53956;52.442;13.284;2023-05-10T13:36:29;23.60;50.60
18126;DHT22;53956;52.442;13.284;2023-05-10T13:38:55;23.70;50.50
18126;DHT22;53956;52.442;13.284;2023-05-10T13:41:22;23.70;51.70
18126;DHT22;53956;52.442;13.284;2023-05-10T13:43:49;23.90;50.60
18126;DHT22;53956;52.442;13.284;2023-05-10T13:46:15;23.70;50.60
18126;DHT22;53956;52.442;13.284;2023-05-10T13:48:43;23.80;51.50
18126;DHT22;53956;52.442;13.284;2023-05-10T13:51:10;23.70;50.40
18126;DHT22;53956;52.442;13.284;2023-05-10T13:53:36;23.70;51.30
18126;DHT22;53956;52.442;13.284;2023-05-10T13:56:03;23.70;51.70
18126;DHT22;53956;52.442;13.284;2023-05-10T13:58:31;23.80;51.30
18126;DHT22;53956;52.442;13.284;2023-05-10T14:00:57;23.70;50.50
18126;DHT22;53956;52.442;13.284;2023-05-10T14:03:24;23.60;51.70
18126;DHT22;53956;52.442;13.284;2023-05-10T14:05:52;23.80;51.30
18126;DHT22;53956;52.442;13.284;2023-05-10T14:08:19;23.70;49.50
18126;DHT22;53956;52.442;13.284;2023-05-10T14:10:46;23.60;51.10
18126;DHT22;53956;52.442;13.284;2023-05-10T14:13:13;23.70;49.00
18126;DHT22;53956;52.442;13.284;2023-05-10T14:15:40;23.70;49.50
18126;DHT22;53956;52.442;13.284;2023-05-10T14:18:07;23.80;49.20
18126;DHT22;53956;52.442;13.284;2023-05-10T14:20:34;23.70;50.30
18126;DHT22;53956;52.442;13.284;2023-05-10T14:23:02;23.70;50.40
18126;DHT22;53956;52.442;13.284;2023-05-10T14:25:28;23.60;50.00
18126;DHT22;53956;52.442;13.284;2023-05-10T14:27:55;23.60;50.40
18126;DHT22;53956;52.442;13.284;2023-05-10T14:30:22;23.60;50.10
18126;DHT22;53956;52.442;13.284;2023-05-10T14:32:48;23.50;49.30
18126;DHT22;53956;52.442;13.284;2023-05-10T14:35:15;23.40;49.00
18126;DHT22;53956;52.442;13.284;2023-05-10T14:37:42;23.30;49.50
18126;DHT22;53956;52.442;13.284;2023-05-10T14:40:11;23.40;50.50
18126;DHT22;53956;52.442;13.284;2023-05-10T14:42:38;23.30;50.10
18126;DHT22;53956;52.442;13.284;2023-05-10T14:45:05;23.30;50.70
18126;DHT22;53956;52.442;13.284;2023-05-10T14:47:32;23.30;50.50
18126;DHT22;53956;52.442;13.284;2023-05-10T14:49:58;23.30;50.50
18126;DHT22;53956;52.442;13.284;2023-05-10T14:52:25;23.30;50.30
18126;DHT22;53956;52.442;13.284;2023-05-10T14:54:52;23.30;50.00
18126;DHT22;53956;52.442;13.284;2023-05-10T14:57:20;23.30;50.00
18126;DHT22;53956;52.442;13.284;2023-05-10T14:59:47;23.40;50.60
18126;DHT22;53956;52.442;13.284;2023-05-10T15:02:13;23.40;50.70
18126;DHT22;53956;52.442;13.284;2023-05-10T15:04:40;23.40;51.10
18126;DHT22;53956;52.442;13.284;2023-05-10T15:07:07;23.40;49.70
18126;DHT22;53956;52.442;13.284;2023-05-10T15:09:33;23.50;50.00
18126;DHT22;53956;52.442;13.284;2023-05-10T15:12:00;23.60;51.20
18126;DHT22;53956;52.442;13.284;2023-05-10T15:14:28;23.60;50.20
18126;DHT22;53956;52.442;13.284;2023-05-10T15:16:55;23.70;49.70
18126;DHT22;53956;52.442;13.284;2023-05-10T15:19:22;23.60;50.80
18126;DHT22;53956;52.442;13.284;2023-05-10T15:21:49;23.70;51.10